Time;durP1;ratioP1;P1;durP2;ratioP2;P2;SDS_P1;SDS_P2;PMS_P1;PMS_P2;Temp;Humidity;BMP_temperature;BMP_pressure;BME280_temperature;BME280_humidity;BME280_pressure;Samples;Min_cycle;Max_cycle;Signal;HPM_P1;HPM_P2
2021/04/08 06:11:10;;;;;;;12.77;5.78;;;;;;;;;;5113031;27;20376;-67
2021/04/08 06:13:36;;;;;;;13.88;5.25;;;;;;;;;;5097181;28;20020;-68
2021/04/08 06:16:01;;;;;;;24.67;5.95;;;;;;;;;;5114642;28;20024;-68
2021/04/08 06:18:26;;;;;;;12.68;6.20;;;;;;;;;;5102215;28;20016;-66
2021/04/08 06:20:52;;;;;;;12.02;5.00;;;;;;;;;;5098143;28;20083;-66
2021/04/08 06:23:18;;;;;;;16.50;5.90;;;;;;;;;;5103426;28;20043;-66
2021/04/08 06:25:43;;;;;;;19.52;5.80;;;;;;;;;;5094260;28;20009;-66
2021/04/08 06:28:09;;;;;;;13.57;5.88;;;;;;;;;;5104574;28;20449;-67
2021/04/08 06:30:34;;;;;;;12.05;6.00;;;;;;;;;;5108669;28;20046;-67
2021/04/08 06:33:00;;;;;;;14.75;6.30;;;;;;;;;;5125003;27;20024;-66
2021/04/08 06:35:25;;;;;;;16.25;8.00;;;;;;;;;;5089874;28;20079;-67
2021/04/08 06:37:51;;;;;;;10.25;5.38;;;;;;;;;;5107856;28;20032;-67
2021/04/08 06:40:17;;;;;;;15.00;5.50;;;;;;;;;;5090263;28;20075;-66
2021/04/08 06:42:42;;;;;;;10.75;5.65;;;;;;;;;;5107168;28;20041;-68
2021/04/08 06:45:08;;;;;;;8.75;5.22;;;;;;;;;;5108740;28;20012;-65
2021/04/08 06:47:42;;;;;;;8.25;5.00;;;;;;;;;;5124952;28;20020;-66
2021/04/08 06:50:09;;;;;;;9.43;4.93;;;;;;;;;;5099497;28;20050;-65
2021/04/08 06:52:36;;;;;;;9.85;4.53;;;;;;;;;;5098971;28;20016;-67
2021/04/08 06:55:02;;;;;;;11.02;4.70;;;;;;;;;;5097802;28;20367;-65
2021/04/08 06:57:28;;;;;;;9.82;4.20;;;;;;;;;;5103271;28;20092;-66
2021/04/08 06:59:54;;;;;;;10.45;3.65;;;;;;;;;;5101417;28;20040;-66
2021/04/08 07:02:20;;;;;;;7.57;4.35;;;;;;;;;;5117371;28;20024;-66
2021/04/08 07:04:45;;;;;;;34.88;10.40;;;;;;;;;;5094431;28;20016;-67
2021/04/08 07:07:11;;;;;;;11.80;5.30;;;;;;;;;;5115113;28;20076;-65
2021/04/08 07:09:36;;;;;;;9.50;4.63;;;;;;;;;;5114536;28;20044;-65
2021/04/08 07:12:02;;;;;;;9.18;4.22;;;;;;;;;;5083133;28;20016;-65
2021/04/08 07:14:28;;;;;;;11.75;4.22;;;;;;;;;;5093636;28;20016;-65
2021/04/08 07:16:53;;;;;;;8.60;3.38;;;;;;;;;;5088312;28;20997;-65
2021/04/08 07:19:19;;;;;;;8.70;3.83;;;;;;;;;;5093147;28;20464;-66
2021/04/08 07:21:44;;;;;;;8.82;3.90;;;;;;;;;;5100596;28;20024;-65
2021/04/08 07:24:12;;;;;;;8.30;2.90;;;;;;;;;;5113177;28;20027;-63
2021/04/08 07:26:57;;;;;;;9.27;3.10;;;;;;;;;;5090404;28;20495;-65
2021/04/08 07:29:23;;;;;;;12.40;3.47;;;;;;;;;;5087644;28;20075;-65
2021/04/08 07:31:50;;;;;;;6.03;3.20;;;;;;;;;;5101677;28;20404;-66
2021/04/08 07:34:27;;;;;;;14.52;4.70;;;;;;;;;;5088623;28;20028;-65
2021/04/08 07:36:53;;;;;;;9.65;5.25;;;;;;;;;;5076292;28;20069;-65
2021/04/08 07:39:18;;;;;;;10.02;3.88;;;;;;;;;;5091100;28;20024;-67
2021/04/08 07:41:57;;;;;;;5.60;3.40;;;;;;;;;;5083434;28;20013;-67
2021/04/08 07:44:22;;;;;;;11.45;3.47;;;;;;;;;;5073732;28;20012;-66
2021/04/08 07:46:48;;;;;;;25.20;6.68;;;;;;;;;;5087913;28;20114;-66
2021/04/08 07:49:23;;;;;;;5.18;3.10;;;;;;;;;;5084227;28;20477;-65
2021/04/08 07:51:48;;;;;;;4.35;3.10;;;;;;;;;;5085080;28;20020;-65
2021/04/08 07:54:14;;;;;;;4.75;3.55;;;;;;;;;;5080163;28;20024;-66
2021/04/08 07:56:40;;;;;;;9.10;3.28;;;;;;;;;;5099936;28;20031;-65
2021/04/08 07:59:15;;;;;;;9.02;3.20;;;;;;;;;;5083655;28;20484;-67
2021/04/08 08:01:41;;;;;;;27.75;3.58;;;;;;;;;;5085416;28;20465;-65
2021/04/08 08:04:17;;;;;;;7.82;3.05;;;;;;;;;;5081014;28;20036;-65
2021/04/08 08:06:43;;;;;;;7.03;2.78;;;;;;;;;;5087531;28;20057;-65
2021/04/08 08:09:08;;;;;;;4.97;2.95;;;;;;;;;;5088273;28;20027;-65
2021/04/08 08:11:39;;;;;;;4.47;2.70;;;;;;;;;;5089090;28;20020;-66
2021/04/08 08:14:04;;;;;;;4.40;2.42;;;;;;;;;;5088925;28;20023;-67
2021/04/08 08:16:30;;;;;;;2.80;2.45;;;;;;;;;;5100495;28;20012;-66
2021/04/08 08:18:57;;;;;;;3.33;2.60;;;;;;;;;;5091313;28;20020;-66
2021/04/08 08:21:30;;;;;;;2.95;2.45;;;;;;;;;;5105006;27;20084;-65
2021/04/08 08:23:57;;;;;;;2.70;2.50;;;;;;;;;;5113124;28;20384;-66
2021/04/08 08:26:26;;;;;;;4.50;2.92;;;;;;;;;;5106446;28;20019;-66
2021/04/08 08:28:52;;;;;;;3.47;2.67;;;;;;;;;;5094055;28;20504;-66
2021/04/08 08:31:27;;;;;;;6.10;3.15;;;;;;;;;;5108978;28;20054;-67
2021/04/08 08:33:53;;;;;;;4.18;2.45;;;;;;;;;;5093320;28;20145;-67
2021/04/08 08:36:18;;;;;;;4.78;2.67;;;;;;;;;;5074886;28;20034;-67
2021/04/08 08:38:44;;;;;;;6.88;2.72;;;;;;;;;;5107522;28;20020;-68
2021/04/08 08:41:10;;;;;;;5.13;2.97;;;;;;;;;;5107247;28;20057;-68
2021/04/08 08:43:35;;;;;;;5.07;3.08;;;;;;;;;;5080692;28;20483;-67
2021/04/08 08:46:01;;;;;;;9.90;3.13;;;;;;;;;;5082424;28;20024;-67
2021/04/08 08:48:26;;;;;;;8.65;3.03;;;;;;;;;;5090060;28;21244;-68
2021/04/08 08:50:52;;;;;;;5.43;3.10;;;;;;;;;;5093567;28;20032;-66
2021/04/08 08:53:17;;;;;;;4.80;2.92;;;;;;;;;;5101653;28;20043;-67
2021/04/08 08:55:43;;;;;;;6.40;2.38;;;;;;;;;;5073257;28;20024;-68
2021/04/08 08:58:08;;;;;;;3.85;2.42;;;;;;;;;;5087875;28;20460;-68
2021/04/08 09:00:34;;;;;;;6.78;2.40;;;;;;;;;;5088338;28;20024;-68
2021/04/08 09:03:00;;;;;;;4.75;2.80;;;;;;;;;;5103556;28;20050;-67
2021/04/08 09:05:27;;;;;;;4.35;2.33;;;;;;;;;;5085144;28;20028;-68
2021/04/08 09:07:53;;;;;;;9.38;3.83;;;;;;;;;;5096662;28;20018;-66
2021/04/08 09:10:33;;;;;;;4.82;2.55;;;;;;;;;;5097138;28;20132;-66
2021/04/08 09:12:58;;;;;;;8.07;2.53;;;;;;;;;;5096682;28;20481;-66
2021/04/08 09:15:25;;;;;;;8.07;2.13;;;;;;;;;;5092891;28;20073;-67
2021/04/08 09:17:58;;;;;;;5.95;2.33;;;;;;;;;;5093295;28;20015;-65
2021/04/08 09:20:24;;;;;;;6.78;2.45;;;;;;;;;;5077861;28;20016;-66
2021/04/08 09:22:51;;;;;;;5.85;2.40;;;;;;;;;;5099239;28;20024;-66
2021/04/08 09:25:17;;;;;;;5.18;2.53;;;;;;;;;;5094413;28;20041;-66
2021/04/08 09:27:52;;;;;;;29.33;4.75;;;;;;;;;;5124808;27;20152;-66
2021/04/08 09:30:27;;;;;;;11.02;2.97;;;;;;;;;;5099692;28;20114;-67
2021/04/08 09:32:55;;;;;;;11.68;3.60;;;;;;;;;;5089777;28;20015;-65
2021/04/08 10:59:21;;;;;;;4.90;2.63;;;;;;;;;;4597810;27;13660260;-67
2021/04/08 11:01:49;;;;;;;4.25;2.28;;;;;;;;;;5051520;28;20094;-67
2021/04/08 11:04:23;;;;;;;3.65;2.33;;;;;;;;;;5067236;28;20020;-66
2021/04/08 11:07:01;;;;;;;10.13;2.67;;;;;;;;;;5075255;28;20058;-66
2021/04/08 11:09:28;;;;;;;4.32;3.03;;;;;;;;;;5067529;28;20104;-67
2021/04/08 11:12:02;;;;;;;7.72;2.90;;;;;;;;;;5068554;28;20044;-66
2021/04/08 11:14:41;;;;;;;4.13;2.67;;;;;;;;;;5051097;28;20135;-66
2021/04/08 11:17:17;;;;;;;6.38;4.07;;;;;;;;;;5069147;28;20360;-68
2021/04/08 11:19:45;;;;;;;6.53;2.60;;;;;;;;;;5051438;28;20013;-67
2021/04/08 11:22:17;;;;;;;9.88;2.85;;;;;;;;;;5060167;28;20071;-68
2021/04/08 11:24:50;;;;;;;10.00;3.42;;;;;;;;;;5043972;28;20025;-66
2021/04/08 11:27:36;;;;;;;9.70;2.85;;;;;;;;;;5060873;28;20459;-67
2021/04/08 11:30:09;;;;;;;4.55;2.05;;;;;;;;;;5062648;28;20058;-67
2021/04/08 11:32:45;;;;;;;12.20;2.30;;;;;;;;;;5066734;28;20028;-69
2021/04/08 11:35:21;;;;;;;12.25;3.05;;;;;;;;;;5066151;28;20385;-67
2021/04/08 11:37:52;;;;;;;9.57;2.60;;;;;;;;;;5051679;28;20027;-66
2021/04/08 11:40:25;;;;;;;6.15;2.67;;;;;;;;;;5068168;28;20027;-67
2021/04/08 11:42:56;;;;;;;13.15;3.00;;;;;;;;;;5051249;28;20028;-67
2021/04/08 11:45:30;;;;;;;16.65;5.78;;;;;;;;;;5064627;28;20108;-68
2021/04/08 11:47:58;;;;;;;10.02;3.90;;;;;;;;;;5066238;28;20435;-68
2021/04/08 11:50:41;;;;;;;5.00;3.00;;;;;;;;;;5063166;28;20103;-67
2021/04/08 11:53:08;;;;;;;3.42;2.10;;;;;;;;;;5047820;28;20094;-68
2021/04/08 11:55:35;;;;;;;6.30;2.03;;;;;;;;;;5065409;28;20480;-68
2021/04/08 11:58:01;;;;;;;2.42;1.80;;;;;;;;;;5064012;28;20286;-67
2021/04/08 12:00:27;;;;;;;5.57;2.38;;;;;;;;;;5069942;28;20473;-68
2021/04/08 12:02:52;;;;;;;6.20;2.20;;;;;;;;;;5067334;28;20017;-67
2021/04/08 12:05:17;;;;;;;8.63;2.10;;;;;;;;;;5065617;28;20025;-67
2021/04/08 12:07:44;;;;;;;3.97;1.80;;;;;;;;;;5066259;28;20020;-67
2021/04/08 12:10:19;;;;;;;4.18;1.83;;;;;;;;;;5032176;28;20071;-67
2021/04/08 12:12:51;;;;;;;1.88;1.58;;;;;;;;;;5049963;28;20119;-67
2021/04/08 12:15:17;;;;;;;6.70;1.70;;;;;;;;;;5051082;28;20023;-67
2021/04/08 12:17:42;;;;;;;7.53;2.28;;;;;;;;;;5062668;28;20512;-67
2021/04/08 12:20:15;;;;;;;10.18;2.42;;;;;;;;;;5058362;28;20021;-66
2021/04/08 12:22:42;;;;;;;12.98;2.55;;;;;;;;;;5060843;28;20366;-65
2021/04/08 12:25:10;;;;;;;2.60;2.10;;;;;;;;;;5056587;28;20055;-65
2021/04/08 12:27:35;;;;;;;3.88;1.92;;;;;;;;;;5049352;28;20111;-66
2021/04/08 12:30:01;;;;;;;6.47;2.00;;;;;;;;;;5043821;28;20355;-65
2021/04/08 12:32:27;;;;;;;4.28;2.25;;;;;;;;;;5050779;28;20066;-66
2021/04/08 12:34:53;;;;;;;5.47;1.50;;;;;;;;;;5046450;28;20009;-65
2021/04/08 12:37:18;;;;;;;4.10;1.67;;;;;;;;;;5050846;28;20037;-67
2021/04/08 12:39:43;;;;;;;6.32;1.80;;;;;;;;;;5043911;28;20017;-66
2021/04/08 12:42:09;;;;;;;7.15;2.17;;;;;;;;;;5046890;28;20045;-67
2021/04/08 12:44:35;;;;;;;5.93;2.38;;;;;;;;;;5026363;28;20022;-67
2021/04/08 12:47:00;;;;;;;5.30;3.03;;;;;;;;;;5027842;28;20517;-68
2021/04/08 12:49:25;;;;;;;4.38;2.97;;;;;;;;;;5035352;28;20021;-68
2021/04/08 12:51:51;;;;;;;8.45;2.75;;;;;;;;;;5034951;28;20369;-67
2021/04/08 12:54:16;;;;;;;4.63;2.10;;;;;;;;;;5032047;28;20022;-67
2021/04/08 12:56:41;;;;;;;5.07;2.33;;;;;;;;;;5045167;28;20021;-68
2021/04/08 12:59:06;;;;;;;4.43;1.80;;;;;;;;;;5074804;28;20063;-67
2021/04/08 13:01:32;;;;;;;2.03;1.63;;;;;;;;;;5054874;28;20096;-68
2021/04/08 13:03:57;;;;;;;3.10;1.80;;;;;;;;;;5073150;28;20024;-68
2021/04/08 13:06:23;;;;;;;3.53;1.38;;;;;;;;;;5071999;28;20488;-66
2021/04/08 13:08:48;;;;;;;4.40;2.30;;;;;;;;;;5046466;28;20045;-66
2021/04/08 13:11:13;;;;;;;3.35;1.67;;;;;;;;;;5045086;28;20029;-67
2021/04/08 13:13:38;;;;;;;21.35;5.65;;;;;;;;;;5053825;28;20031;-67
2021/04/08 13:16:04;;;;;;;2.30;1.38;;;;;;;;;;5072419;28;20070;-66
2021/04/08 13:18:29;;;;;;;16.70;4.88;;;;;;;;;;5072757;28;20081;-66
2021/04/08 13:20:55;;;;;;;6.55;1.65;;;;;;;;;;5053181;28;20028;-66
2021/04/08 13:23:20;;;;;;;3.72;1.50;;;;;;;;;;5072357;28;20024;-66
2021/04/08 13:25:45;;;;;;;9.50;3.15;;;;;;;;;;5072811;28;20017;-66
2021/04/08 13:28:11;;;;;;;11.98;2.40;;;;;;;;;;5072173;28;20103;-66
2021/04/08 13:30:36;;;;;;;5.88;2.22;;;;;;;;;;5071813;28;20028;-68
2021/04/08 13:33:02;;;;;;;9.15;2.50;;;;;;;;;;5054796;28;20028;-66
2021/04/08 13:35:27;;;;;;;14.75;3.70;;;;;;;;;;5053754;28;20070;-67
2021/04/08 13:37:53;;;;;;;21.73;5.43;;;;;;;;;;5069815;28;20028;-71
2021/04/08 13:40:19;;;;;;;3.35;1.60;;;;;;;;;;5033222;28;20024;-69
2021/04/08 13:42:44;;;;;;;2.65;1.25;;;;;;;;;;5034363;28;20017;-69
2021/04/08 13:45:11;;;;;;;11.98;1.95;;;;;;;;;;5053832;28;20021;-67
2021/04/08 13:47:36;;;;;;;7.82;2.17;;;;;;;;;;5072263;28;20016;-68
2021/04/08 13:50:02;;;;;;;2.90;1.50;;;;;;;;;;5041686;28;20047;-68
2021/04/08 13:52:28;;;;;;;4.53;1.98;;;;;;;;;;5027094;28;20111;-68
2021/04/08 13:54:54;;;;;;;7.60;2.33;;;;;;;;;;5039070;28;20020;-68
2021/04/08 13:57:19;;;;;;;21.83;3.15;;;;;;;;;;5050402;28;20439;-66
2021/04/08 13:59:44;;;;;;;5.47;2.70;;;;;;;;;;5046092;28;20441;-68
2021/04/08 14:02:10;;;;;;;7.85;2.35;;;;;;;;;;5053050;28;20107;-67
2021/04/08 14:04:35;;;;;;;6.45;1.88;;;;;;;;;;5052036;28;20128;-67
2021/04/08 14:07:01;;;;;;;6.28;1.98;;;;;;;;;;5024973;28;20124;-66
2021/04/08 14:09:26;;;;;;;6.40;1.83;;;;;;;;;;5047903;28;20033;-68
2021/04/08 14:11:52;;;;;;;6.32;1.80;;;;;;;;;;5036687;28;20028;-65
2021/04/08 14:14:18;;;;;;;5.10;1.77;;;;;;;;;;5044729;28;20023;-65
2021/04/08 14:16:44;;;;;;;4.68;2.10;;;;;;;;;;5043420;28;20024;-65
2021/04/08 14:19:09;;;;;;;5.78;1.75;;;;;;;;;;5037791;28;20040;-65
2021/04/08 14:21:35;;;;;;;2.25;1.70;;;;;;;;;;5039002;28;20457;-65
2021/04/08 14:24:01;;;;;;;4.47;1.35;;;;;;;;;;5052173;28;20465;-65
2021/04/08 14:26:26;;;;;;;1.95;1.40;;;;;;;;;;5060644;28;20099;-66
